Time;durP1;ratioP1;P1;durP2;ratioP2;P2;SDS_P1;SDS_P2;PMS_P1;PMS_P2;Temp;Humidity;BMP_temperature;BMP_pressure;BME280_temperature;BME280_humidity;BME280_pressure;Samples;Min_cycle;Max_cycle;Signal;HPM_P1;HPM_P2
2023/05/19 00:00:43;;;;;;;5.80;3.03;;;;;;;8.40;100.00;93333.19;2534563;23;20006;-79
2023/05/19 00:01:53;;;;;;;10.38;2.97;;;;;;;8.37;100.00;93333.97;2533386;23;20006;-79
2023/05/19 00:03:03;;;;;;;;;;;;;;;8.41;100.00;93328.63;2529624;23;20010;-79
2023/05/19 00:04:13;;;;;;;6.10;3.20;;;;;;;8.36;100.00;93324.44;2533044;23;19909;-80
2023/05/19 00:05:23;;;;;;;9.30;2.78;;;;;;;8.31;100.00;93333.63;2522969;23;20058;-78
2023/05/19 00:06:30;;;;;;;;;;;;;;;8.32;100.00;93326.38;2535867;23;20060;-80
2023/05/19 00:07:44;;;;;;;7.35;2.92;;;;;;;8.34;100.00;93321.44;2545341;23;20284;-79
2023/05/19 00:09:03;;;;;;;8.05;2.97;;;;;;;8.27;100.00;93322.25;2545615;23;20002;-80
2023/05/19 00:10:12;;;;;;;7.65;2.80;;;;;;;8.29;100.00;93321.84;2533277;23;20006;-79
2023/05/19 00:11:21;;;;;;;6.75;2.78;;;;;;;8.27;100.00;93316.16;2522522;23;20382;-79
2023/05/19 00:12:31;;;;;;;8.02;2.90;;;;;;;8.30;100.00;93320.72;2534646;23;20073;-79
2023/05/19 00:13:37;;;;;;;;;;;;;;;8.26;100.00;93320.00;2534200;23;20303;-79
2023/05/19 00:14:46;;;;;;;6.53;2.50;;;;;;;8.30;100.00;93318.06;2534170;23;19988;-80
2023/05/19 00:15:56;;;;;;;11.43;3.17;;;;;;;8.26;100.00;93312.75;2546129;23;20002;-80
2023/05/19 00:17:06;;;;;;;6.38;2.65;;;;;;;8.29;100.00;93311.94;2521100;23;20006;-79
2023/05/19 00:18:15;;;;;;;4.63;2.67;;;;;;;8.26;100.00;93317.31;2513157;23;20013;-78
2023/05/19 00:19:24;;;;;;;4.90;2.70;;;;;;;8.28;100.00;93309.69;2534823;23;20134;-79
2023/05/19 00:20:32;;;;;;;9.02;3.22;;;;;;;8.31;100.00;93314.22;2521259;23;20010;-80
2023/05/19 00:21:40;;;;;;;6.53;3.05;;;;;;;8.29;100.00;93314.59;2522634;23;20007;-79
2023/05/19 00:22:50;;;;;;;5.18;3.28;;;;;;;8.32;100.00;93321.06;2521033;23;20049;-80
2023/05/19 00:24:00;;;;;;;6.63;2.67;;;;;;;8.28;100.00;93312.34;2522496;23;20010;-78
2023/05/19 00:25:09;;;;;;;5.20;2.67;;;;;;;8.27;100.00;93316.16;2510993;23;20003;-79
2023/05/19 00:26:16;;;;;;;7.47;2.97;;;;;;;8.28;100.00;93312.34;2512625;23;20074;-80
2023/05/19 00:27:25;;;;;;;10.23;2.80;;;;;;;8.29;100.00;93311.19;2534517;23;20009;-80
2023/05/19 00:28:32;;;;;;;6.60;3.00;;;;;;;8.25;100.00;93313.91;2521222;23;20029;-79
2023/05/19 00:29:39;;;;;;;7.63;3.35;;;;;;;8.26;100.00;93307.44;2522221;23;20051;-78
2023/05/19 00:30:48;;;;;;;7.50;2.80;;;;;;;8.27;100.00;93321.50;2523025;23;20010;-80
2023/05/19 00:31:52;;;;;;;8.68;2.72;;;;;;;8.27;100.00;93316.91;2522633;23;20009;-80
2023/05/19 00:33:01;;;;;;;6.60;3.00;;;;;;;8.26;100.00;93317.31;2533745;23;20008;-79
2023/05/19 00:34:07;;;;;;;10.80;3.20;;;;;;;8.23;100.00;93310.13;2532980;23;20037;-79
2023/05/19 00:35:18;;;;;;;6.05;3.03;;;;;;;8.24;100.00;93314.28;2522104;23;20007;-80
2023/05/19 00:36:28;;;;;;;5.57;2.75;;;;;;;8.26;100.00;93314.66;2522949;23;20160;-79
2023/05/19 00:37:36;;;;;;;9.15;2.90;;;;;;;8.23;100.00;93316.19;2537658;23;20006;-79
2023/05/19 00:38:45;;;;;;;6.75;2.63;;;;;;;8.22;100.00;93314.69;2533202;23;20032;-78
2023/05/19 00:39:54;;;;;;;7.38;3.13;;;;;;;8.20;100.00;93314.31;2512427;23;20053;-80
2023/05/19 00:41:02;;;;;;;7.65;3.45;;;;;;;8.16;100.00;93304.84;2524094;23;20017;-79
2023/05/19 00:42:10;;;;;;;9.10;3.05;;;;;;;8.17;100.00;93311.72;2534393;23;20010;-80
2023/05/19 00:43:14;;;;;;;11.48;3.30;;;;;;;8.16;100.00;93310.19;2534994;23;20441;-80
2023/05/19 00:44:24;;;;;;;10.82;3.38;;;;;;;8.15;100.00;93312.09;2521375;23;20425;-79
2023/05/19 00:45:33;;;;;;;10.95;3.22;;;;;;;8.12;100.00;93302.25;2536515;23;20081;-78
2023/05/19 00:46:42;;;;;;;7.88;3.15;;;;;;;8.11;100.00;93310.63;2557870;23;20075;-80
2023/05/19 00:47:50;;;;;;;6.93;3.60;;;;;;;8.12;100.00;93310.25;2545347;23;20454;-79
2023/05/19 00:48:58;;;;;;;8.45;3.28;;;;;;;8.12;100.00;93304.13;2522713;23;20030;-79
2023/05/19 00:50:06;;;;;;;10.07;2.90;;;;;;;8.14;100.00;93307.16;2522405;23;20439;-79
2023/05/19 00:51:15;;;;;;;7.63;3.28;;;;;;;8.11;100.00;93303.38;2512105;23;20007;-80
2023/05/19 00:52:24;;;;;;;6.53;3.00;;;;;;;8.12;100.00;93310.25;2536346;23;20081;-80
2023/05/19 00:53:34;;;;;;;5.35;3.00;;;;;;;8.11;100.00;93305.28;2545349;23;20013;-79
2023/05/19 00:54:43;;;;;;;5.25;2.88;;;;;;;8.10;100.00;93293.13;2535142;23;20025;-80
2023/05/19 00:55:53;;;;;;;8.45;2.97;;;;;;;8.08;100.00;93293.53;2523202;23;20002;-79
2023/05/19 00:57:04;;;;;;;9.73;3.53;;;;;;;8.05;100.00;93302.31;2524799;23;20433;-79
2023/05/19 00:58:15;;;;;;;6.57;3.30;;;;;;;8.03;100.00;93294.72;2535433;23;20091;-80
2023/05/19 00:59:25;;;;;;;7.65;2.83;;;;;;;8.10;100.00;93296.53;2547004;23;20016;-80
2023/05/19 01:00:35;;;;;;;8.63;3.60;;;;;;;8.13;100.00;93297.69;2556936;23;20004;-79
2023/05/19 01:01:47;;;;;;;7.97;3.00;;;;;;;8.09;100.00;93295.03;2533156;23;20002;-78
2023/05/19 01:02:57;;;;;;;5.03;2.90;;;;;;;8.04;100.00;93300.81;2537951;23;20012;-78
2023/05/19 01:04:08;;;;;;;6.80;3.17;;;;;;;8.05;100.00;93295.06;2545149;23;20675;-78
2023/05/19 01:05:19;;;;;;;8.10;3.45;;;;;;;8.05;100.00;93294.31;2547595;23;20001;-78
2023/05/19 01:06:28;;;;;;;5.47;3.05;;;;;;;8.03;100.00;93293.94;2557435;23;20011;-78
2023/05/19 01:07:37;;;;;;;7.55;3.55;;;;;;;8.04;100.00;93300.81;2544865;23;20006;-79
2023/05/19 01:08:45;;;;;;;7.10;3.40;;;;;;;8.00;100.00;93292.84;2547163;23;20040;-80
2023/05/19 01:09:55;;;;;;;8.63;3.17;;;;;;;7.99;100.00;93294.00;2545167;23;20009;-79
2023/05/19 01:11:02;;;;;;;8.43;3.75;;;;;;;8.00;100.00;93295.50;2522596;23;20079;-79
2023/05/19 01:12:13;;;;;;;6.28;3.17;;;;;;;8.02;100.00;93295.84;2523455;23;20034;-79
2023/05/19 01:13:15;;;;;;;16.33;3.70;;;;;;;8.02;100.00;93298.50;2523092;23;20010;-79
2023/05/19 01:14:23;;;;;;;10.98;3.50;;;;;;;8.02;100.00;93301.19;2521185;23;20469;-79
2023/05/19 01:15:37;;;;;;;7.70;3.28;;;;;;;8.01;100.00;93304.25;2547324;23;20005;-79
2023/05/19 01:17:26;;;;;;;8.23;3.20;;;;;;;8.02;100.00;93292.44;2545046;23;20005;-80
2023/05/19 01:18:45;;;;;;;6.18;3.20;;;;;;;8.01;100.00;93299.66;2543738;23;20009;-80
2023/05/19 01:20:00;;;;;;;7.63;3.38;;;;;;;8.03;100.00;93291.28;2557898;23;20011;-81
2023/05/19 01:21:43;;;;;;;10.73;3.47;;;;;;;7.99;100.00;93296.66;2533626;23;20009;-79
2023/05/19 01:23:18;;;;;;;8.27;3.40;;;;;;;8.03;100.00;93302.72;2552277;23;20009;-78
2023/05/19 01:24:50;;;;;;;6.80;3.03;;;;;;;8.00;100.00;93290.19;2550312;23;20009;-78
2023/05/19 01:26:13;;;;;;;9.25;3.20;;;;;;;8.03;100.00;93288.63;2554339;23;20440;-79
2023/05/19 01:27:41;;;;;;;7.50;2.85;;;;;;;8.00;100.00;93290.19;2560397;23;20052;-79
2023/05/19 01:29:04;;;;;;;5.53;3.08;;;;;;;8.01;100.00;93293.59;2546305;23;20028;-78
2023/05/19 01:30:38;;;;;;;7.40;3.35;;;;;;;7.95;100.00;93293.28;2538485;23;20012;-79
2023/05/19 01:31:49;;;;;;;13.98;3.53;;;;;;;7.91;100.00;93294.44;2527492;23;20005;-80
2023/05/19 01:33:00;;;;;;;6.93;3.00;;;;;;;7.93;100.00;93286.81;2525169;23;20469;-78
2023/05/19 01:34:11;;;;;;;8.02;2.88;;;;;;;7.95;100.00;93293.28;2535322;23;20005;-80
2023/05/19 01:35:21;;;;;;;6.28;3.55;;;;;;;7.90;100.00;93296.38;2535216;23;20524;-80
2023/05/19 01:36:30;;;;;;;6.70;3.25;;;;;;;7.87;100.00;93291.81;2547307;23;20001;-79
2023/05/19 01:37:40;;;;;;;12.85;3.65;;;;;;;7.85;100.00;93288.78;2533008;23;20010;-79
2023/05/19 01:38:53;;;;;;;6.63;3.20;;;;;;;7.85;100.00;93291.44;2523995;23;20018;-79
2023/05/19 01:40:04;;;;;;;6.80;3.13;;;;;;;7.81;100.00;93288.06;2535707;23;20009;-79
2023/05/19 01:41:13;;;;;;;10.13;3.15;;;;;;;7.80;100.00;93283.88;2534919;23;20037;-79
2023/05/19 01:42:35;;;;;;;7.90;3.37;;;;;;;7.83;100.00;93285.78;2534790;23;20010;-79
2023/05/19 01:43:46;;;;;;;9.48;3.30;;;;;;;7.80;100.00;93279.31;2537126;23;20432;-80
2023/05/19 01:44:53;;;;;;;;;;;;;;;7.81;100.00;93282.72;2547579;23;20048;-80
2023/05/19 01:46:04;;;;;;;7.38;3.80;;;;;;;7.80;100.00;93281.97;2545479;23;19905;-80
2023/05/19 01:47:13;;;;;;;6.55;2.83;;;;;;;7.78;100.00;93286.19;2547700;23;20005;-79
2023/05/19 01:48:15;;;;;;;8.48;3.38;;;;;;;7.78;100.00;93284.28;2545222;23;20428;-79
2023/05/19 01:49:15;;;;;;;8.85;3.30;;;;;;;7.75;100.00;93282.41;2521112;23;20097;-80
2023/05/19 01:50:16;;;;;;;6.05;3.20;;;;;;;7.71;100.00;93286.25;2533381;23;20065;-79
2023/05/19 01:51:19;;;;;;;10.07;3.50;;;;;;;7.66;100.00;93278.69;2533008;23;20002;-78
2023/05/19 01:52:27;;;;;;;13.00;3.83;;;;;;;7.64;100.00;93281.75;2521448;23;20009;-79
2023/05/19 01:53:35;;;;;;;10.82;3.58;;;;;;;7.68;100.00;93281.69;2534348;23;20365;-78
2023/05/19 01:54:43;;;;;;;7.25;3.25;;;;;;;7.63;100.00;93282.88;2545199;23;20020;-79
2023/05/19 01:55:55;;;;;;;8.18;3.75;;;;;;;7.64;100.00;93284.41;2546568;23;20464;-79
2023/05/19 01:57:26;;;;;;;7.25;3.20;;;;;;;7.58;100.00;93281.41;2544988;23;20012;-79
2023/05/19 01:59:01;;;;;;;8.52;3.35;;;;;;;7.55;100.00;93278.75;2527273;23;20005;-78
2023/05/19 02:00:16;;;;;;;7.45;3.40;;;;;;;7.57;100.00;93279.88;2552650;23;20059;-78
2023/05/19 02:01:52;;;;;;;6.72;3.50;;;;;;;7.61;100.00;93268.47;2558344;23;20015;-78
2023/05/19 02:03:11;;;;;;;8.85;3.13;;;;;;;7.56;100.00;93273.06;2545257;23;20031;-79
2023/05/19 02:04:38;;;;;;;9.32;3.42;;;;;;;7.56;100.00;93262.44;2536846;23;20026;-79
2023/05/19 02:05:48;;;;;;;10.70;4.03;;;;;;;7.50;100.00;93271.94;2538352;23;20012;-79
2023/05/19 02:07:03;;;;;;;5.10;2.97;;;;;;;7.80;100.00;93270.59;2522867;23;20049;-79
2023/05/19 02:08:13;;;;;;;7.07;3.15;;;;;;;7.75;100.00;93276.34;2526582;23;20006;-78
2023/05/19 02:09:47;;;;;;;12.52;3.95;;;;;;;7.60;100.00;93277.59;2534644;23;20009;-81
2023/05/19 02:11:15;;;;;;;9.00;3.67;;;;;;;7.54;100.00;93267.38;2524845;23;20001;-78
2023/05/19 02:12:29;;;;;;;6.57;3.40;;;;;;;7.43;100.00;93269.38;2525776;23;20404;-79
2023/05/19 02:13:44;;;;;;;9.05;3.40;;;;;;;7.49;100.00;93270.44;2514563;23;20034;-79
2023/05/19 02:15:12;;;;;;;9.07;3.30;;;;;;;7.50;100.00;93271.19;2523524;23;20010;-79
2023/05/19 02:16:23;;;;;;;7.75;4.00;;;;;;;7.45;100.00;93268.97;2544266;23;20043;-80
2023/05/19 02:17:36;;;;;;;6.05;3.10;;;;;;;7.37;100.00;93272.81;2544950;23;20001;-79
2023/05/19 02:18:50;;;;;;;8.35;3.47;;;;;;;7.47;100.00;93272.00;2535586;23;20342;-79
2023/05/19 02:21:19;;;;;;;;;;;;;;;7.19;100.00;93270.28;2140493;27;20890;-80
2023/05/19 02:22:27;;;;;;;7.70;3.30;;;;;;;7.17;100.00;93272.59;2139240;27;19918;-80
2023/05/19 02:23:36;;;;;;;6.43;3.53;;;;;;;7.11;100.00;93271.47;2133274;27;20046;-78
2023/05/19 02:24:40;;;;;;;7.10;3.55;;;;;;;7.08;100.00;93273.03;2118285;28;20027;-80
2023/05/19 02:25:49;;;;;;;6.88;3.67;;;;;;;7.09;100.00;93276.44;2120442;27;20034;-79
2023/05/19 02:26:58;;;;;;;10.27;3.78;;;;;;;7.09;100.00;93273.78;2135346;27;20018;-80
2023/05/19 02:28:08;;;;;;;7.72;3.35;;;;;;;7.13;100.00;93261.97;2130940;27;20087;-79
2023/05/19 02:29:17;;;;;;;6.13;3.13;;;;;;;7.11;100.00;93271.47;2122314;28;20065;-79
2023/05/19 02:30:27;;;;;;;7.15;3.45;;;;;;;7.06;100.00;93273.38;2123176;27;20012;-79
2023/05/19 02:31:37;;;;;;;9.23;3.15;;;;;;;7.03;100.00;93268.88;2123473;27;20027;-80
2023/05/19 02:32:45;;;;;;;7.70;3.08;;;;;;;7.02;100.00;93270.03;2130284;27;20034;-79
2023/05/19 02:33:52;;;;;;;5.97;3.15;;;;;;;7.05;100.00;93263.91;2130120;27;20684;-80
2023/05/19 02:35:00;;;;;;;5.40;3.40;;;;;;;7.03;100.00;93274.19;2130006;27;20027;-80
2023/05/19 02:36:08;;;;;;;6.68;3.47;;;;;;;7.01;100.00;93263.16;2129554;27;20071;-79
2023/05/19 02:37:17;;;;;;;8.10;3.50;;;;;;;7.01;100.00;93270.38;2114464;28;20035;-79
2023/05/19 02:38:24;;;;;;;6.35;3.20;;;;;;;6.97;100.00;93272.31;2101473;28;20054;-79
2023/05/19 02:39:34;;;;;;;7.75;3.63;;;;;;;6.93;100.00;93272.31;2107350;28;20048;-80
2023/05/19 02:40:43;;;;;;;5.88;3.10;;;;;;;6.91;100.00;93276.53;2121413;28;20047;-79
2023/05/19 02:41:52;;;;;;;6.30;3.03;;;;;;;6.90;100.00;93273.13;2122177;27;20035;-80
2023/05/19 02:43:02;;;;;;;6.07;3.20;;;;;;;6.86;100.00;93267.06;2110120;28;20023;-81
2023/05/19 02:44:11;;;;;;;6.03;3.00;;;;;;;6.89;100.00;93274.28;2106854;28;20063;-80
2023/05/19 02:45:21;;;;;;;8.05;3.80;;;;;;;6.87;100.00;93273.13;2105657;28;20028;-79
2023/05/19 02:46:29;;;;;;;;;;;;;;;6.87;100.00;93273.13;2107538;28;20036;-80
2023/05/19 02:47:40;;;;;;;7.25;3.13;;;;;;;6.86;100.00;93272.38;2121476;28;19907;-80
2023/05/19 02:48:48;;;;;;;5.95;3.05;;;;;;;6.86;100.00;93267.06;2122034;27;20027;-81
2023/05/19 02:49:56;;;;;;;6.40;3.28;;;;;;;6.86;100.00;93275.03;2121332;28;20409;-78
2023/05/19 02:51:01;;;;;;;5.30;3.53;;;;;;;6.82;100.00;93277.72;2113084;28;20032;-81
2023/05/19 02:52:07;;;;;;;10.70;3.47;;;;;;;6.84;100.00;93274.66;2113295;28;20020;-79
2023/05/19 02:53:14;;;;;;;6.70;3.72;;;;;;;6.86;100.00;93264.41;2121183;27;20023;-79
2023/05/19 02:54:22;;;;;;;7.05;3.78;;;;;;;6.87;100.00;93265.91;2121188;28;20118;-81
2023/05/19 02:55:29;;;;;;;7.25;3.50;;;;;;;6.89;100.00;93270.84;2105634;28;20032;-80
2023/05/19 02:56:38;;;;;;;7.15;3.25;;;;;;;6.91;100.00;93273.88;2113889;28;20020;-79
2023/05/19 02:57:46;;;;;;;7.38;3.63;;;;;;;6.96;100.00;93268.16;2106285;28;20384;-80
2023/05/19 02:58:52;;;;;;;4.25;2.95;;;;;;;6.89;100.00;93268.97;2099247;28;20416;-80
2023/05/19 03:00:02;;;;;;;6.45;3.42;;;;;;;6.89;100.00;93268.19;2102490;28;20563;-80
2023/05/19 03:01:09;;;;;;;7.70;3.47;;;;;;;6.91;100.00;93268.56;2117096;28;20035;-79
2023/05/19 03:02:18;;;;;;;5.90;3.25;;;;;;;6.94;100.00;93275.75;2119607;28;20027;-80
2023/05/19 03:03:27;;;;;;;9.23;3.00;;;;;;;6.92;100.00;93268.16;2116601;28;20032;-80
2023/05/19 03:04:40;;;;;;;4.70;3.58;;;;;;;7.03;100.00;93266.22;2123371;27;20030;-80
2023/05/19 03:05:49;;;;;;;6.28;3.08;;;;;;;6.99;100.00;93267.38;2115920;28;20023;-79
2023/05/19 03:06:56;;;;;;;9.13;2.92;;;;;;;7.06;100.00;93269.97;2113357;28;20068;-79
2023/05/19 03:08:05;;;;;;;7.95;3.38;;;;;;;7.19;100.00;93267.63;2102905;28;20016;-80
2023/05/19 03:09:14;;;;;;;7.53;3.22;;;;;;;7.14;100.00;93260.81;2106485;28;20043;-81
2023/05/19 03:10:20;;;;;;;9.45;3.40;;;;;;;7.09;100.00;93271.13;2114084;28;20502;-80
2023/05/19 03:11:33;;;;;;;6.88;3.53;;;;;;;7.09;100.00;93265.81;2120619;27;20019;-80
2023/05/19 03:12:45;;;;;;;5.57;2.85;;;;;;;7.05;100.00;93271.88;2121154;27;20479;-80
2023/05/19 03:13:54;;;;;;;12.68;3.20;;;;;;;7.07;100.00;93271.50;2116921;28;20055;-79
2023/05/19 03:15:11;;;;;;;9.63;3.13;;;;;;;7.08;100.00;93262.38;2104604;28;20422;-79
2023/05/19 03:16:20;;;;;;;6.57;3.25;;;;;;;7.09;100.00;93266.56;2100622;28;20040;-81
2023/05/19 03:17:32;;;;;;;7.55;2.88;;;;;;;7.10;100.00;93264.66;2106619;28;20107;-80
2023/05/19 03:18:42;;;;;;;6.57;3.20;;;;;;;7.11;100.00;93269.56;2114351;28;20031;-79
2023/05/19 03:19:51;;;;;;;9.07;3.22;;;;;;;7.08;100.00;93262.38;2113812;28;20040;-80
2023/05/19 03:21:00;;;;;;;6.32;3.15;;;;;;;7.07;100.00;93271.50;2120831;27;20051;-79
2023/05/19 03:22:09;;;;;;;5.38;2.80;;;;;;;7.01;100.00;93263.16;2121349;28;20039;-81
2023/05/19 03:23:18;;;;;;;7.30;3.50;;;;;;;7.02;100.00;93264.72;2105533;28;20020;-80
2023/05/19 03:24:27;;;;;;;5.32;2.88;;;;;;;7.00;100.00;93264.31;2109694;27;20027;-80
2023/05/19 03:25:37;;;;;;;8.00;3.45;;;;;;;7.09;100.00;93263.13;2128711;27;20073;-81
2023/05/19 03:26:46;;;;;;;6.70;2.88;;;;;;;7.10;100.00;93267.31;2120987;27;20031;-80
2023/05/19 03:27:53;;;;;;;6.03;3.20;;;;;;;7.11;100.00;93266.16;2105389;28;20162;-81
2023/05/19 03:29:00;;;;;;;6.47;3.25;;;;;;;7.07;100.00;93258.97;2100161;28;20443;-80
2023/05/19 03:30:10;;;;;;;8.05;2.85;;;;;;;7.08;100.00;93262.38;2113746;28;20107;-81
2023/05/19 03:31:18;;;;;;;8.60;3.40;;;;;;;7.05;100.00;93263.16;2125713;27;20031;-81
2023/05/19 03:32:26;;;;;;;8.15;3.20;;;;;;;7.01;100.00;93263.16;2111204;28;20083;-80
2023/05/19 03:33:35;;;;;;;6.53;3.00;;;;;;;7.02;100.00;93259.41;2100635;28;20060;-80
2023/05/19 03:34:44;;;;;;;5.10;3.10;;;;;;;6.98;100.00;93268.50;2115226;28;20034;-80
2023/05/19 03:35:53;;;;;;;5.40;3.05;;;;;;;7.01;100.00;93270.38;2106680;28;20035;-81
2023/05/19 03:37:03;;;;;;;5.95;3.25;;;;;;;7.00;100.00;93269.63;2099809;28;20025;-80
2023/05/19 03:38:12;;;;;;;6.07;2.90;;;;;;;7.01;100.00;93268.50;2100949;28;20035;-81
2023/05/19 03:39:20;;;;;;;4.53;3.08;;;;;;;7.05;100.00;93268.47;2107842;28;20023;-79
2023/05/19 03:40:27;;;;;;;4.05;2.97;;;;;;;7.07;100.00;93272.25;2099468;28;20037;-81
2023/05/19 03:41:36;;;;;;;6.75;3.10;;;;;;;7.10;100.00;93269.97;2107529;28;20154;-80
2023/05/19 03:42:41;;;;;;;7.60;3.40;;;;;;;7.11;100.00;93269.56;2107879;28;20039;-81
2023/05/19 03:43:50;;;;;;;10.05;3.63;;;;;;;7.10;100.00;93269.97;2107523;28;20066;-80
2023/05/19 03:44:59;;;;;;;8.00;3.45;;;;;;;7.06;100.00;93267.31;2115104;28;20421;-80
2023/05/19 03:46:07;;;;;;;9.85;3.22;;;;;;;7.09;100.00;93263.91;2114887;28;20019;-80
2023/05/19 03:47:17;;;;;;;4.75;2.90;;;;;;;7.23;100.00;93277.09;2115341;28;20379;-79
2023/05/19 03:48:30;;;;;;;7.60;3.58;;;;;;;7.16;100.00;93268.44;2114941;28;20031;-80
2023/05/19 03:49:40;;;;;;;7.32;3.13;;;;;;;7.17;100.00;93268.03;2100172;28;20029;-81
2023/05/19 03:50:47;;;;;;;;;;;;;;;7.10;100.00;93264.66;2099963;28;20107;-79
2023/05/19 03:51:55;;;;;;;6.30;2.95;;;;;;;7.06;100.00;93269.97;2100406;28;19919;-80
2023/05/19 03:53:04;;;;;;;9.75;3.20;;;;;;;7.14;100.00;93276.75;2107631;28;20024;-80
2023/05/19 03:54:12;;;;;;;5.45;3.35;;;;;;;7.13;100.00;93274.50;2107731;28;20020;-80
2023/05/19 03:55:22;;;;;;;6.75;3.20;;;;;;;7.09;100.00;93273.78;2098730;28;20116;-79
2023/05/19 03:56:33;;;;;;;7.15;3.15;;;;;;;7.15;100.00;93270.31;2091156;28;20029;-80
2023/05/19 03:57:43;;;;;;;5.90;3.15;;;;;;;7.17;100.00;93272.59;2099813;28;20063;-81
2023/05/19 03:58:53;;;;;;;6.45;3.45;;;;;;;7.15;100.00;93280.94;2100891;28;20024;-80
2023/05/19 04:00:04;;;;;;;7.15;3.25;;;;;;;7.13;100.00;93277.16;2115034;28;20030;-79
2023/05/19 04:01:13;;;;;;;8.02;3.30;;;;;;;7.13;100.00;93277.91;2115123;28;20109;-80
2023/05/19 04:02:22;;;;;;;5.75;3.40;;;;;;;7.15;100.00;93277.53;2115726;28;20028;-79
2023/05/19 04:03:32;;;;;;;4.95;3.00;;;;;;;7.03;100.00;93278.75;2112095;28;20059;-81
2023/05/19 04:04:42;;;;;;;6.63;3.58;;;;;;;7.07;100.00;93276.81;2115465;28;20478;-81
2023/05/19 04:05:47;;;;;;;;;;;;;;;7.06;100.00;93276.03;2106925;28;20035;-81
2023/05/19 04:07:00;;;;;;;5.63;3.20;;;;;;;7.17;100.00;93273.34;2099575;28;19912;-81
2023/05/19 04:08:06;;;;;;;6.57;3.30;;;;;;;7.15;100.00;93275.63;2115059;28;20455;-79
2023/05/19 04:09:18;;;;;;;8.38;3.28;;;;;;;7.13;100.00;93285.13;2106312;28;20020;-80
2023/05/19 04:10:26;;;;;;;5.50;3.00;;;;;;;7.24;100.00;93285.81;2092936;28;20537;-81
2023/05/19 04:11:33;;;;;;;7.15;3.70;;;;;;;7.20;100.00;93280.53;2106781;28;20027;-81
2023/05/19 04:12:45;;;;;;;6.68;3.83;;;;;;;7.19;100.00;93280.91;2115244;28;20020;-80
2023/05/19 04:13:53;;;;;;;10.73;3.60;;;;;;;7.27;100.00;93283.13;2115031;28;20019;-80
2023/05/19 04:15:15;;;;;;;8.40;3.95;;;;;;;7.22;100.00;93280.16;2114163;28;20463;-80
2023/05/19 04:16:23;;;;;;;7.85;4.55;;;;;;;7.23;100.00;93282.41;2109424;28;20026;-81
2023/05/19 04:17:33;;;;;;;7.53;4.50;;;;;;;7.19;100.00;93278.25;2107353;28;20502;-79
2023/05/19 04:18:44;;;;;;;10.18;3.55;;;;;;;7.19;100.00;93278.25;2107868;28;20099;-80
2023/05/19 04:19:53;;;;;;;6.07;3.70;;;;;;;7.18;100.00;93288.13;2099525;28;20063;-80
2023/05/19 04:21:02;;;;;;;5.20;3.50;;;;;;;7.16;100.00;93285.13;2100619;28;20045;-79
2023/05/19 04:22:11;;;;;;;7.93;3.80;;;;;;;7.16;100.00;93284.38;2107601;28;20372;-80
2023/05/19 04:23:18;;;;;;;10.38;7.22;;;;;;;7.14;100.00;93284.75;2110290;28;20030;-80
2023/05/19 04:24:25;;;;;;;8.10;5.25;;;;;;;7.21;100.00;93282.06;2110872;28;20119;-79
2023/05/19 04:25:35;;;;;;;10.55;4.88;;;;;;;7.19;100.00;93281.66;2115025;28;20049;-80
2023/05/19 04:26:44;;;;;;;6.82;3.85;;;;;;;7.19;100.00;93279.00;2106375;28;20786;-81
2023/05/19 04:27:52;;;;;;;5.32;3.40;;;;;;;7.19;100.00;93279.00;2107766;28;20028;-79
2023/05/19 04:29:03;;;;;;;5.93;3.53;;;;;;;7.29;100.00;93277.44;2098159;28;20025;-79
2023/05/19 04:30:11;;;;;;;6.70;4.00;;;;;;;7.24;100.00;93283.94;2092566;28;20029;-79
2023/05/19 04:31:20;;;;;;;7.60;3.83;;;;;;;7.15;100.00;93275.63;2103320;28;20028;-80
2023/05/19 04:32:29;;;;;;;5.82;3.33;;;;;;;7.24;100.00;93275.19;2107516;28;20502;-81
2023/05/19 04:33:40;;;;;;;6.63;3.55;;;;;;;7.19;100.00;93279.00;2108090;28;20127;-80
2023/05/19 04:34:48;;;;;;;6.13;4.40;;;;;;;7.23;100.00;93274.44;2106365;28;20107;-80
2023/05/19 04:35:58;;;;;;;19.23;12.30;;;;;;;7.22;100.00;93274.81;2107664;28;20609;-79
2023/05/19 04:37:09;;;;;;;5.38;3.72;;;;;;;7.14;100.00;93268.78;2115671;28;20466;-80
2023/05/19 04:38:27;;;;;;;7.57;4.47;;;;;;;7.21;100.00;93271.41;2114840;28;20048;-80
2023/05/19 04:39:38;;;;;;;4.97;3.70;;;;;;;7.17;100.00;93276.00;2108520;28;20052;-81
2023/05/19 04:40:48;;;;;;;5.50;3.25;;;;;;;7.14;100.00;93276.00;2107947;28;20036;-80
2023/05/19 04:41:56;;;;;;;5.50;3.33;;;;;;;7.33;100.00;93278.16;2106695;28;20057;-81
2023/05/19 04:43:06;;;;;;;18.08;9.55;;;;;;;7.22;100.00;93274.81;2111211;28;20027;-79
2023/05/19 04:44:09;;;;;;;6.05;3.72;;;;;;;7.17;100.00;93275.25;2098275;28;20365;-79
2023/05/19 04:45:12;;;;;;;14.57;6.90;;;;;;;7.09;100.00;93279.09;2098564;28;20028;-79
2023/05/19 04:46:14;;;;;;;8.68;5.03;;;;;;;7.14;100.00;93281.34;2098804;28;20043;-79
2023/05/19 04:47:16;;;;;;;7.18;4.03;;;;;;;7.11;100.00;93276.78;2115056;28;20047;-79
2023/05/19 04:48:21;;;;;;;4.72;3.60;;;;;;;7.15;100.00;93280.94;2114827;28;20039;-78
2023/05/19 04:49:23;;;;;;;7.63;4.45;;;;;;;7.06;100.00;93278.72;2114638;28;20491;-79
2023/05/19 04:50:27;;;;;;;6.97;3.70;;;;;;;7.11;100.00;93282.09;2115359;28;20023;-78
2023/05/19 04:51:30;;;;;;;5.70;3.15;;;;;;;7.10;100.00;93283.25;2107428;28;20032;-79
2023/05/19 04:52:31;;;;;;;6.85;3.42;;;;;;;7.20;100.00;93274.44;2115568;28;20384;-78
2023/05/19 04:53:32;;;;;;;5.38;3.58;;;;;;;7.19;100.00;93283.56;2107077;28;20476;-78
2023/05/19 04:54:34;;;;;;;8.25;3.50;;;;;;;7.18;100.00;93282.06;2098710;28;20024;-79
2023/05/19 04:55:37;;;;;;;5.10;3.17;;;;;;;7.18;100.00;93284.72;2107538;28;20028;-79
2023/05/19 04:56:39;;;;;;;5.50;3.03;;;;;;;7.23;100.00;93281.66;2106805;28;20049;-80
2023/05/19 04:57:40;;;;;;;5.38;3.40;;;;;;;7.23;100.00;93277.09;2099224;28;20052;-79
2023/05/19 04:58:44;;;;;;;5.05;3.15;;;;;;;7.22;100.00;93280.16;2115868;28;20051;-79
2023/05/19 04:59:46;;;;;;;4.75;3.13;;;;;;;7.23;100.00;93279.00;2115556;28;20402;-80
2023/05/19 05:00:47;;;;;;;7.57;3.58;;;;;;;7.36;100.00;93282.69;2106988;28;20030;-79
2023/05/19 05:01:48;;;;;;;6.22;3.22;;;;;;;7.30;100.00;93290.34;2098721;28;20387;-79
2023/05/19 05:02:49;;;;;;;6.97;3.38;;;;;;;7.26;100.00;93286.19;2093514;28;20024;-80
2023/05/19 05:03:57;;;;;;;5.20;3.20;;;;;;;7.21;100.00;93284.72;2107065;28;20047;-78
2023/05/19 05:04:59;;;;;;;5.60;3.13;;;;;;;7.31;100.00;93291.09;2114869;28;20030;-80
2023/05/19 05:06:00;;;;;;;5.68;3.40;;;;;;;7.26;100.00;93284.28;2098098;28;20024;-79
2023/05/19 05:07:01;;;;;;;6.60;3.53;;;;;;;7.28;100.00;93284.66;2090271;28;20029;-78
2023/05/19 05:08:02;;;;;;;5.00;3.25;;;;;;;7.22;100.00;93278.25;2104444;28;20027;-78
2023/05/19 05:09:03;;;;;;;4.78;3.47;;;;;;;7.25;100.00;93276.72;2115263;28;20102;-79
2023/05/19 05:10:05;;;;;;;5.43;3.10;;;;;;;7.30;100.00;93282.38;2114922;28;20015;-79
2023/05/19 05:11:06;;;;;;;5.28;2.90;;;;;;;7.34;100.00;93281.59;2098204;28;20024;-79
2023/05/19 05:12:08;;;;;;;6.75;2.97;;;;;;;7.35;100.00;93280.44;2098765;28;20029;-78
2023/05/19 05:13:12;;;;;;;6.78;2.88;;;;;;;7.40;100.00;93275.47;2115076;28;20525;-78
2023/05/19 05:14:13;;;;;;;9.77;3.60;;;;;;;7.45;100.00;93274.28;2113230;28;20027;-78
2023/05/19 05:15:15;;;;;;;5.50;3.15;;;;;;;7.43;100.00;93277.34;2115269;28;20085;-80
2023/05/19 05:16:16;;;;;;;4.60;3.00;;;;;;;7.43;100.00;93279.25;2106406;28;20020;-79
2023/05/19 05:17:25;;;;;;;6.57;2.90;;;;;;;7.44;100.00;93278.84;2089810;28;20082;-79
2023/05/19 05:18:27;;;;;;;5.88;3.30;;;;;;;7.35;100.00;93281.19;2099536;28;20025;-80
2023/05/19 05:19:29;;;;;;;4.47;2.92;;;;;;;7.34;100.00;93281.59;2110100;28;20054;-78
2023/05/19 05:20:34;;;;;;;5.40;3.20;;;;;;;7.44;100.00;93275.44;2098445;28;20035;-80
2023/05/19 05:21:36;;;;;;;8.07;3.50;;;;;;;7.40;100.00;93280.78;2099937;28;20028;-79
2023/05/19 05:22:37;;;;;;;5.00;3.45;;;;;;;7.53;100.00;93275.75;2110990;28;20024;-78
2023/05/19 05:23:39;;;;;;;6.25;2.80;;;;;;;7.53;100.00;93281.06;2103234;28;20016;-79
2023/05/19 05:24:40;;;;;;;4.82;2.65;;;;;;;7.54;100.00;93271.94;2111616;27;20027;-78
2023/05/19 05:25:42;;;;;;;5.38;2.90;;;;;;;7.58;100.00;93277.97;2112766;28;20108;-78
2023/05/19 05:26:44;;;;;;;5.32;2.90;;;;;;;7.47;100.00;93282.66;2110242;28;20455;-79
2023/05/19 05:27:45;;;;;;;5.25;3.00;;;;;;;7.43;100.00;93274.69;2117072;28;20051;-78
2023/05/19 05:28:46;;;;;;;7.30;3.00;;;;;;;7.50;100.00;93277.28;2107629;28;20024;-79